createdAt,value
2018-09-01T00:01:02.245Z,2.60
2018-09-01T00:03:32.709Z,2.40
2018-09-01T00:06:02.708Z,2.90
2018-09-01T00:08:32.725Z,2.63
2018-09-01T00:11:02.893Z,2.87
2018-09-01T00:13:32.677Z,2.60
2018-09-01T00:16:02.457Z,2.53
2018-09-01T00:18:32.217Z,2.80
2018-09-01T00:21:02.770Z,2.83
2018-09-01T00:23:32.736Z,2.63
2018-09-01T00:26:02.130Z,2.77
2018-09-01T00:28:31.893Z,2.53
2018-09-01T00:31:01.785Z,2.50
2018-09-01T00:33:31.171Z,2.70
2018-09-01T00:36:01.997Z,2.00
2018-09-01T00:38:37.347Z,3.20
2018-09-01T00:41:07.262Z,2.13
2018-09-01T00:43:36.718Z,2.50
2018-09-01T00:46:07.224Z,2.93
2018-09-01T00:48:37.363Z,2.70
2018-09-01T00:51:07.009Z,2.13
2018-09-01T00:53:36.366Z,2.50
2018-09-01T00:56:06.604Z,2.70
2018-09-01T00:58:36.327Z,2.63
2018-09-01T01:01:06.042Z,2.33
2018-09-01T01:03:35.977Z,2.20
2018-09-01T01:06:06.702Z,2.60
2018-09-01T01:08:36.305Z,2.30
2018-09-01T01:11:06.118Z,2.20
2018-09-01T01:13:35.914Z,3.07
2018-09-01T01:16:05.311Z,2.73
2018-09-01T01:18:35.116Z,2.43
2018-09-01T01:21:05.114Z,2.47
2018-09-01T01:23:34.891Z,2.10
2018-09-01T01:26:04.942Z,2.90
2018-09-01T01:28:34.961Z,2.47
2018-09-01T01:31:05.626Z,2.77
2018-09-01T01:33:35.316Z,2.47
2018-09-01T01:36:04.820Z,3.07
2018-09-01T01:38:34.774Z,2.53
2018-09-01T01:41:04.693Z,2.97
2018-09-01T01:43:34.654Z,2.70
2018-09-01T01:46:04.570Z,2.20
2018-09-01T01:48:34.482Z,2.40
2018-09-01T01:51:04.214Z,2.20
2018-09-01T01:53:34.266Z,3.23
2018-09-01T01:56:04.176Z,2.40
2018-09-01T01:58:34.090Z,2.37
2018-09-01T02:01:03.736Z,2.50
2018-09-01T02:03:33.598Z,3.03
2018-09-01T02:06:03.604Z,2.60
2018-09-01T02:08:33.373Z,2.87
2018-09-01T02:11:03.201Z,2.60
2018-09-01T02:13:33.246Z,2.60
2018-09-01T02:16:02.947Z,3.13
2018-09-01T02:18:33.299Z,2.80
2018-09-01T02:21:03.611Z,2.80
2018-09-01T02:23:33.803Z,2.77
2018-09-01T02:26:03.376Z,2.83
2018-09-01T02:28:32.843Z,2.87
2018-09-01T02:31:02.460Z,2.80
2018-09-01T02:33:32.154Z,2.53
2018-09-01T02:36:01.861Z,2.77
2018-09-01T02:38:31.486Z,2.93
2018-09-01T02:41:01.228Z,3.27
2018-09-01T02:43:31.504Z,3.03
2018-09-01T02:46:01.731Z,2.43
2018-09-01T02:48:31.648Z,2.90
2018-09-01T02:51:01.651Z,2.50
2018-09-01T02:53:31.494Z,2.60
2018-09-01T02:56:01.400Z,2.80
2018-09-01T02:58:31.153Z,2.60
2018-09-01T03:01:05.963Z,2.60
2018-09-01T03:03:35.804Z,2.37
2018-09-01T03:06:05.788Z,3.00
2018-09-01T03:08:36.100Z,2.97
2018-09-01T03:11:05.920Z,2.30
2018-09-01T03:13:35.758Z,2.73
2018-09-01T03:16:05.714Z,2.70
2018-09-01T03:18:35.368Z,2.70
2018-09-01T03:21:05.028Z,2.77
2018-09-01T03:23:34.648Z,3.07
2018-09-01T03:26:04.430Z,3.27
2018-09-01T03:28:34.182Z,2.90
2018-09-01T03:31:04.383Z,2.57
2018-09-01T03:33:34.193Z,2.80
2018-09-01T03:36:03.836Z,3.10
2018-09-01T03:38:33.818Z,3.03
2018-09-01T03:41:04.330Z,2.70
2018-09-01T03:43:33.660Z,2.90
2018-09-01T03:46:03.526Z,3.10
2018-09-01T03:48:33.490Z,2.80
2018-09-01T03:51:02.957Z,2.70
2018-09-01T03:53:32.420Z,2.83
2018-09-01T03:56:02.161Z,3.17
2018-09-01T03:58:31.795Z,3.47
2018-09-01T04:01:01.366Z,3.20
2018-09-01T04:03:30.793Z,3.00
2018-09-01T04:06:00.699Z,3.17
2018-09-01T04:08:30.045Z,3.30
2018-09-01T04:10:59.387Z,3.20
2018-09-01T04:13:28.557Z,3.40
2018-09-01T04:15:58.029Z,3.63
2018-09-01T04:18:27.408Z,3.47
2018-09-01T04:20:56.673Z,3.60
2018-09-01T04:23:26.415Z,3.70
2018-09-01T04:25:56.259Z,4.30
2018-09-01T04:28:25.673Z,3.77
2018-09-01T04:30:55.340Z,4.03
2018-09-01T04:33:24.983Z,4.00
2018-09-01T04:35:54.343Z,3.57
2018-09-01T04:38:24.265Z,3.53
2018-09-01T04:40:54.284Z,3.37
2018-09-01T04:43:24.795Z,3.50
2018-09-01T04:45:55.564Z,3.17
2018-09-01T04:48:25.907Z,3.07
2018-09-01T04:50:55.859Z,3.43
2018-09-01T04:53:26.054Z,3.40
2018-09-01T04:55:56.553Z,3.50
2018-09-01T04:58:26.491Z,4.00
2018-09-01T05:00:57.395Z,3.97
2018-09-01T05:03:31.657Z,3.53
2018-09-01T05:06:05.894Z,3.90
2018-09-01T05:08:38.244Z,4.10
2018-09-01T05:11:09.739Z,3.57
2018-09-01T05:13:41.962Z,4.00
2018-09-01T05:16:14.571Z,4.07
2018-09-01T05:18:46.262Z,4.43
2018-09-01T05:21:16.900Z,4.00
2018-09-01T05:23:47.895Z,4.07
2018-09-01T05:26:17.721Z,4.40
2018-09-01T05:28:52.068Z,4.97
2018-09-01T05:31:27.325Z,4.50
2018-09-01T05:33:58.031Z,4.60
2018-09-01T05:36:28.847Z,5.20
2018-09-01T05:38:59.176Z,4.30
2018-09-01T05:41:29.638Z,5.77
2018-09-01T05:43:59.695Z,5.50
2018-09-01T05:46:29.730Z,4.90
2018-09-01T05:49:00.550Z,5.27
2018-09-01T05:51:30.975Z,5.23
2018-09-01T05:54:01.353Z,5.40
2018-09-01T05:56:31.831Z,5.90
2018-09-01T05:59:01.975Z,5.50
2018-09-01T06:01:32.220Z,5.93
2018-09-01T06:04:02.898Z,5.43
2018-09-01T06:06:33.059Z,5.47
2018-09-01T06:09:04.222Z,5.40
2018-09-01T06:11:34.833Z,5.53
2018-09-01T06:14:05.422Z,6.00
2018-09-01T06:16:35.472Z,5.63
2018-09-01T06:19:05.486Z,5.73
2018-09-01T06:21:36.176Z,4.90
2018-09-01T06:24:06.965Z,5.27
2018-09-01T06:26:37.867Z,5.27
2018-09-01T06:29:12.697Z,5.13
2018-09-01T06:31:47.468Z,5.10
2018-09-01T06:34:17.824Z,5.40
2018-09-01T06:36:48.952Z,4.93
2018-09-01T06:39:20.544Z,4.73
2018-09-01T06:41:51.129Z,4.80
2018-09-01T06:44:22.310Z,4.83
2018-09-01T06:46:52.881Z,6.67
2018-09-01T06:49:23.008Z,6.00
2018-09-01T06:51:53.668Z,6.23
2018-09-01T06:54:24.324Z,6.20
2018-09-01T06:56:54.728Z,6.20
2018-09-01T06:59:25.476Z,4.67
2018-09-01T07:01:55.848Z,5.30
2018-09-01T07:04:26.600Z,5.23
2018-09-01T07:06:56.895Z,5.00
2018-09-01T07:09:28.524Z,4.87
2018-09-01T07:11:58.690Z,4.67
2018-09-01T07:14:29.192Z,4.33
2018-09-01T07:16:59.172Z,4.70
2018-09-01T07:19:32.240Z,5.17
2018-09-01T07:22:02.266Z,5.13
2018-09-01T07:24:32.945Z,4.13
2018-09-01T07:27:03.578Z,4.93
2018-09-01T07:29:33.382Z,4.50
2018-09-01T07:32:03.852Z,4.30
2018-09-01T07:34:34.602Z,4.47
2018-09-01T07:37:05.578Z,4.30
2018-09-01T07:39:36.193Z,4.40
2018-09-01T07:42:06.730Z,5.53
2018-09-01T07:44:36.858Z,4.07
2018-09-01T07:47:06.980Z,5.00
2018-09-01T07:49:36.976Z,5.23
2018-09-01T07:52:07.721Z,4.87
2018-09-01T07:54:38.102Z,4.57
2018-09-01T07:57:08.277Z,5.03
2018-09-01T07:59:38.527Z,4.27
2018-09-01T08:02:08.752Z,4.27
2018-09-01T08:04:39.280Z,4.57
2018-09-01T08:07:09.980Z,3.80
2018-09-01T08:09:40.030Z,3.93
2018-09-01T08:12:10.380Z,3.80
2018-09-01T08:14:40.904Z,3.80
2018-09-01T08:17:11.166Z,3.67
2018-09-01T08:19:41.761Z,4.13
2018-09-01T08:22:13.290Z,4.40
2018-09-01T08:24:43.465Z,4.00
2018-09-01T08:27:14.552Z,4.00
2018-09-01T08:29:45.614Z,3.77
2018-09-01T08:32:16.368Z,3.67
2018-09-01T08:34:46.870Z,3.40
2018-09-01T08:37:16.886Z,3.80
2018-09-01T08:39:47.091Z,3.67
2018-09-01T08:42:17.768Z,3.50
2018-09-01T08:44:48.043Z,3.80
2018-09-01T08:47:18.200Z,3.23
2018-09-01T08:49:48.134Z,3.00
2018-09-01T08:52:18.315Z,3.93
2018-09-01T08:54:48.242Z,3.33
2018-09-01T08:57:18.928Z,3.23
2018-09-01T08:59:49.214Z,3.20
2018-09-01T09:02:19.846Z,3.10
2018-09-01T09:04:49.581Z,3.37
2018-09-01T09:07:19.808Z,2.50
2018-09-01T09:09:49.939Z,3.63
2018-09-01T09:12:21.741Z,3.27
2018-09-01T09:14:52.542Z,3.47
2018-09-01T09:17:22.990Z,3.37
2018-09-01T09:19:53.476Z,2.23
2018-09-01T09:22:24.349Z,2.13
2018-09-01T09:24:54.294Z,2.40
2018-09-01T09:27:25.410Z,2.20
2018-09-01T09:29:55.454Z,2.23
2018-09-01T09:32:25.645Z,2.53
2018-09-01T09:34:55.758Z,2.13
2018-09-01T09:37:25.875Z,2.23
2018-09-01T09:39:56.698Z,1.83
2018-09-01T09:42:26.838Z,2.23
2018-09-01T09:44:56.894Z,1.93
2018-09-01T09:47:26.811Z,1.80
2018-09-01T09:49:56.898Z,2.10
2018-09-01T09:52:27.844Z,1.93
2018-09-01T09:54:58.254Z,2.30
2018-09-01T09:57:28.347Z,2.07
2018-09-01T09:59:58.601Z,2.00
2018-09-01T10:02:30.330Z,1.70
2018-09-01T10:05:00.775Z,2.30
2018-09-01T10:07:31.451Z,1.87
2018-09-01T10:10:01.794Z,2.00
2018-09-01T10:12:32.135Z,2.20
2018-09-01T10:15:01.777Z,2.40
2018-09-01T10:17:31.712Z,1.90
2018-09-01T10:20:02.046Z,1.70
2018-09-01T10:22:31.883Z,1.93
2018-09-01T10:25:02.478Z,2.20
2018-09-01T10:27:32.860Z,1.70
2018-09-01T10:30:03.261Z,2.37
2018-09-01T10:32:33.285Z,2.37
2018-09-01T10:35:03.649Z,2.00
2018-09-01T10:37:34.860Z,2.07
2018-09-01T10:40:05.685Z,2.20
2018-09-01T10:42:35.933Z,1.77
2018-09-01T10:45:09.587Z,2.10
2018-09-01T10:47:42.190Z,2.53
2018-09-01T10:50:14.317Z,1.57
2018-09-01T10:52:47.066Z,2.10
2018-09-01T10:55:20.715Z,2.53
2018-09-01T10:57:52.266Z,2.27
2018-09-01T11:00:24.470Z,2.10
2018-09-01T11:02:56.416Z,1.80
2018-09-01T11:05:27.197Z,2.00
2018-09-01T11:07:58.081Z,1.80
2018-09-01T11:10:29.525Z,2.23
2018-09-01T11:13:00.834Z,1.73
2018-09-01T11:15:30.906Z,2.10
2018-09-01T11:18:00.619Z,1.80
2018-09-01T11:20:30.464Z,2.13
2018-09-01T11:23:00.329Z,2.07
2018-09-01T11:25:30.177Z,2.33
2018-09-01T11:28:00.083Z,2.37
2018-09-01T11:30:30.083Z,1.93
2018-09-01T11:32:59.585Z,2.13
2018-09-01T11:35:29.301Z,2.23
2018-09-01T11:37:59.259Z,2.10
2018-09-01T11:40:30.058Z,1.93
2018-09-01T11:42:59.906Z,2.13
2018-09-01T11:45:29.758Z,2.43
2018-09-01T11:48:00.002Z,2.67
2018-09-01T11:50:29.962Z,2.13
2018-09-01T11:52:59.725Z,1.93
2018-09-01T11:55:29.456Z,2.27
2018-09-01T11:57:59.354Z,2.70
2018-09-01T12:00:31.215Z,2.40
2018-09-01T12:03:01.955Z,2.27
2018-09-01T12:05:31.881Z,2.37
2018-09-01T12:08:02.227Z,2.37
2018-09-01T12:10:32.367Z,2.10
2018-09-01T12:13:03.071Z,2.30
2018-09-01T12:15:33.190Z,1.97
2018-09-01T12:18:03.597Z,2.30
2018-09-01T12:20:33.595Z,2.57
2018-09-01T12:23:03.569Z,2.40
2018-09-01T12:25:33.747Z,2.80
2018-09-01T12:28:03.693Z,2.33
2018-09-01T12:30:33.663Z,2.60
2018-09-01T12:33:03.928Z,2.97
2018-09-01T12:35:34.035Z,2.80
2018-09-01T12:38:04.077Z,2.20
2018-09-01T12:40:33.975Z,2.47
2018-09-01T12:43:04.099Z,2.63
2018-09-01T12:45:34.315Z,2.80
2018-09-01T12:48:04.505Z,2.40
2018-09-01T12:50:34.507Z,2.63
2018-09-01T12:53:04.549Z,2.70
2018-09-01T12:55:34.704Z,2.67
2018-09-01T12:58:09.686Z,2.80
2018-09-01T13:00:39.849Z,2.60
2018-09-01T13:03:10.033Z,2.50
2018-09-01T13:05:39.701Z,2.77
2018-09-01T13:08:09.892Z,2.53
2018-09-01T13:10:39.781Z,2.43
2018-09-01T13:13:09.591Z,2.50
2018-09-01T13:15:39.427Z,2.53
2018-09-01T13:18:09.729Z,2.77
2018-09-01T13:20:39.637Z,2.73
2018-09-01T13:23:09.499Z,2.33
2018-09-01T13:25:39.422Z,2.70
2018-09-01T13:28:09.351Z,2.33
2018-09-01T13:30:39.481Z,2.93
2018-09-01T13:33:09.479Z,2.50
2018-09-01T13:35:39.460Z,2.30
2018-09-01T13:38:09.405Z,2.27
2018-09-01T13:40:40.021Z,2.37
2018-09-01T13:43:09.929Z,2.13
2018-09-01T13:45:39.942Z,2.53
2018-09-01T13:48:10.713Z,2.27
2018-09-01T13:50:40.598Z,2.13
2018-09-01T13:53:10.615Z,2.30
2018-09-01T13:55:40.641Z,3.07
2018-09-01T13:58:10.769Z,2.70
2018-09-01T14:00:40.917Z,2.17
2018-09-01T14:03:10.651Z,2.20
2018-09-01T14:05:40.577Z,2.50
2018-09-01T14:08:10.805Z,2.80
2018-09-01T14:10:40.746Z,2.80
2018-09-01T14:13:10.849Z,2.50
2018-09-01T14:15:41.660Z,2.10
2018-09-01T14:18:12.019Z,3.00
2018-09-01T14:20:41.989Z,2.53
2018-09-01T14:23:13.278Z,2.60
2018-09-01T14:25:43.430Z,2.37
2018-09-01T14:28:14.794Z,2.63
2018-09-01T14:30:45.584Z,2.30
2018-09-01T14:33:16.834Z,2.43
2018-09-01T14:35:48.170Z,2.20
2018-09-01T14:38:19.131Z,2.60
2018-09-01T14:40:49.826Z,2.47
2018-09-01T14:43:20.423Z,2.23
2018-09-01T14:45:50.398Z,2.40
2018-09-01T14:48:20.071Z,2.27
2018-09-01T14:50:50.398Z,2.30
2018-09-01T14:53:20.706Z,2.40
2018-09-01T14:55:50.793Z,2.50
2018-09-01T14:58:21.470Z,2.80
2018-09-01T15:00:51.281Z,2.90
2018-09-01T15:03:22.016Z,2.20
2018-09-01T15:05:52.091Z,2.93
2018-09-01T15:08:22.260Z,2.37
2018-09-01T15:10:52.470Z,2.20
2018-09-01T15:13:22.104Z,3.00
2018-09-01T15:15:52.320Z,2.63
2018-09-01T15:18:22.602Z,3.03
2018-09-01T15:20:53.002Z,2.47
2018-09-01T15:23:23.388Z,2.77
2018-09-01T15:25:53.483Z,2.10
2018-09-01T15:28:23.802Z,2.77
2018-09-01T15:30:54.716Z,3.00
2018-09-01T15:33:26.218Z,2.90
2018-09-01T15:35:56.392Z,2.90
2018-09-01T15:38:27.431Z,2.63
2018-09-01T15:40:58.620Z,3.20
2018-09-01T15:43:29.780Z,3.10
2018-09-01T15:45:59.772Z,3.30
2018-09-01T15:48:29.960Z,2.87
2018-09-01T15:51:00.628Z,2.67
2018-09-01T15:53:30.807Z,2.80
2018-09-01T15:56:01.051Z,2.80
2018-09-01T15:58:32.136Z,2.83
2018-09-01T16:01:02.379Z,3.23
2018-09-01T16:03:33.156Z,3.03
2018-09-01T16:06:03.466Z,3.43
2018-09-01T16:08:33.546Z,3.30
2018-09-01T16:11:04.884Z,2.90
2018-09-01T16:13:35.204Z,3.30
2018-09-01T16:16:06.700Z,3.30
2018-09-01T16:18:37.338Z,3.07
2018-09-01T16:21:07.642Z,3.00
2018-09-01T16:23:44.564Z,3.30
2018-09-01T16:26:15.037Z,3.67
2018-09-01T16:28:46.260Z,3.83
2018-09-01T16:31:17.353Z,3.33
2018-09-01T16:33:47.508Z,3.20
2018-09-01T16:36:18.267Z,3.83
2018-09-01T16:38:48.466Z,2.73
2018-09-01T16:41:18.948Z,3.37
2018-09-01T16:43:48.676Z,3.37
2018-09-01T16:46:19.086Z,3.23
2018-09-01T16:48:50.921Z,3.23
2018-09-01T16:51:22.545Z,3.47
2018-09-01T16:53:55.272Z,3.30
2018-09-01T16:56:27.123Z,2.80
2018-09-01T16:58:58.354Z,3.10
2018-09-01T17:01:31.513Z,2.77
2018-09-01T17:04:03.754Z,3.40
2018-09-01T17:06:35.498Z,3.33
2018-09-01T17:09:08.887Z,2.97
2018-09-01T17:11:40.180Z,2.93
2018-09-01T17:14:10.915Z,3.80
2018-09-01T17:16:42.863Z,3.77
2018-09-01T17:19:13.972Z,2.97
2018-09-01T17:21:45.017Z,2.87
2018-09-01T17:24:15.790Z,2.80
2018-09-01T17:26:46.249Z,2.97
2018-09-01T17:29:17.360Z,2.83
2018-09-01T17:31:47.569Z,2.80
2018-09-01T17:34:18.455Z,2.80
2018-09-01T17:36:49.093Z,2.60
2018-09-01T17:39:20.843Z,2.77
2018-09-01T17:41:51.540Z,2.70
2018-09-01T17:44:21.985Z,3.17
2018-09-01T17:46:51.973Z,3.70
2018-09-01T17:49:21.869Z,3.10
2018-09-01T17:51:51.332Z,3.03
2018-09-01T17:54:20.801Z,3.30
2018-09-01T17:56:50.294Z,3.00
2018-09-01T17:59:20.743Z,2.97
2018-09-01T18:01:51.198Z,3.27
2018-09-01T18:04:21.913Z,3.30
2018-09-01T18:06:51.876Z,3.00
2018-09-01T18:09:21.405Z,3.37
2018-09-01T18:11:51.138Z,3.17
2018-09-01T18:14:20.551Z,3.00
2018-09-01T18:16:49.845Z,2.77
2018-09-01T18:19:18.996Z,2.67
2018-09-01T18:21:48.191Z,2.80
2018-09-01T18:24:17.288Z,2.87
2018-09-01T18:26:46.553Z,3.27
2018-09-01T18:29:15.915Z,3.03
2018-09-01T18:31:45.043Z,3.40
2018-09-01T18:34:14.251Z,2.87
2018-09-01T18:36:43.361Z,3.47
2018-09-01T18:39:12.972Z,3.10
2018-09-01T18:41:42.426Z,2.90
2018-09-01T18:44:11.772Z,2.73
2018-09-01T18:46:41.189Z,2.97
2018-09-01T18:49:10.558Z,2.60
2018-09-01T18:51:40.015Z,3.30
2018-09-01T18:54:09.536Z,2.93
2018-09-01T18:56:39.462Z,3.23
2018-09-01T18:59:10.780Z,3.40
2018-09-01T19:01:40.677Z,3.00
2018-09-01T19:04:10.361Z,3.13
2018-09-01T19:06:39.651Z,3.70
2018-09-01T19:09:09.193Z,3.23
2018-09-01T19:11:38.696Z,2.90
2018-09-01T19:14:08.251Z,3.30
2018-09-01T19:16:37.879Z,2.93
2018-09-01T19:19:07.619Z,3.50
2018-09-01T19:21:37.118Z,3.40
2018-09-01T19:24:06.530Z,3.27
2018-09-01T19:26:36.144Z,3.00
2018-09-01T19:29:06.090Z,3.40
2018-09-01T19:31:35.977Z,3.40
2018-09-01T19:34:05.657Z,2.77
2018-09-01T19:36:35.238Z,3.27
2018-09-01T19:39:06.778Z,3.50
2018-09-01T19:41:36.622Z,3.20
2018-09-01T19:44:06.083Z,3.07
2018-09-01T19:46:35.756Z,3.30
2018-09-01T19:49:05.521Z,3.30
2018-09-01T19:51:35.289Z,3.60
2018-09-01T19:54:04.882Z,3.17
2018-09-01T19:56:34.524Z,3.87
2018-09-01T19:59:04.270Z,3.20
2018-09-01T20:01:33.626Z,3.10
2018-09-01T20:04:03.696Z,3.20
2018-09-01T20:06:33.595Z,3.40
2018-09-01T20:09:03.173Z,3.30
2018-09-01T20:11:32.453Z,3.27
2018-09-01T20:14:02.116Z,3.30
2018-09-01T20:16:31.634Z,3.57
2018-09-01T20:19:01.124Z,3.10
2018-09-01T20:21:30.830Z,3.43
2018-09-01T20:24:00.371Z,3.53
2018-09-01T20:26:30.800Z,3.00
2018-09-01T20:29:00.549Z,3.40
2018-09-01T20:31:30.323Z,3.13
2018-09-01T20:33:59.865Z,2.83
2018-09-01T20:36:29.915Z,2.77
2018-09-01T20:38:59.289Z,3.33
2018-09-01T20:41:28.677Z,3.57
2018-09-01T20:43:58.259Z,3.07
2018-09-01T20:46:28.093Z,2.90
2018-09-01T20:48:57.512Z,3.30
2018-09-01T20:51:27.201Z,2.93
2018-09-01T20:53:56.794Z,3.20
2018-09-01T20:56:26.296Z,3.60
2018-09-01T20:58:55.750Z,3.20
2018-09-01T21:01:25.374Z,3.47
2018-09-01T21:03:55.076Z,3.13
2018-09-01T21:06:24.601Z,3.13
2018-09-01T21:08:54.054Z,3.20
2018-09-01T21:11:23.310Z,2.77
2018-09-01T21:13:53.027Z,3.13
2018-09-01T21:16:23.163Z,3.37
2018-09-01T21:18:52.437Z,3.47
2018-09-01T21:21:22.037Z,3.20
2018-09-01T21:23:51.614Z,3.07
2018-09-01T21:26:21.463Z,3.23
2018-09-01T21:28:51.223Z,3.57
2018-09-01T21:31:20.917Z,3.20
2018-09-01T21:33:50.153Z,3.97
2018-09-01T21:36:19.552Z,3.17
2018-09-01T21:38:48.747Z,3.47
2018-09-01T21:41:18.221Z,3.50
2018-09-01T21:43:47.758Z,3.63
2018-09-01T21:46:17.221Z,3.23
2018-09-01T21:48:46.646Z,3.77
2018-09-01T21:51:16.195Z,3.93
2018-09-01T21:53:45.694Z,3.83
2018-09-01T21:56:15.130Z,3.67
2018-09-01T21:58:44.521Z,3.30
2018-09-01T22:01:19.448Z,4.13
2018-09-01T22:03:49.417Z,3.63
2018-09-01T22:06:19.885Z,3.57
2018-09-01T22:08:49.656Z,3.10
2018-09-01T22:11:20.386Z,3.47
2018-09-01T22:13:49.872Z,3.40
2018-09-01T22:16:19.490Z,3.47
2018-09-01T22:18:49.260Z,3.67
2018-09-01T22:21:18.687Z,3.20
2018-09-01T22:23:48.182Z,3.87
2018-09-01T22:26:17.694Z,4.20
2018-09-01T22:28:47.192Z,4.10
2018-09-01T22:31:16.810Z,4.00
2018-09-01T22:33:46.217Z,3.23
2018-09-01T22:36:15.788Z,3.90
2018-09-01T22:38:45.449Z,3.70
2018-09-01T22:41:14.944Z,3.70
2018-09-01T22:43:44.337Z,3.40
2018-09-01T22:46:13.997Z,4.30
2018-09-01T22:48:43.453Z,3.57
2018-09-01T22:51:12.893Z,3.57
2018-09-01T22:53:42.157Z,3.20
2018-09-01T22:56:11.743Z,3.73
2018-09-01T22:58:41.249Z,3.67
2018-09-01T23:01:11.092Z,3.90
2018-09-01T23:03:40.699Z,3.57
2018-09-01T23:06:09.988Z,3.90
2018-09-01T23:08:39.342Z,3.17
2018-09-01T23:11:08.701Z,3.63
2018-09-01T23:13:38.310Z,3.60
2018-09-01T23:16:07.714Z,4.20
2018-09-01T23:18:37.652Z,3.93
2018-09-01T23:21:07.035Z,3.70
2018-09-01T23:23:36.482Z,3.93
2018-09-01T23:26:05.792Z,3.93
2018-09-01T23:28:35.089Z,3.50
2018-09-01T23:31:04.436Z,4.00
2018-09-01T23:33:34.033Z,3.90
2018-09-01T23:36:03.692Z,3.87
2018-09-01T23:38:33.130Z,4.10
2018-09-01T23:41:02.710Z,4.07
2018-09-01T23:43:32.060Z,3.13
2018-09-01T23:46:01.728Z,3.40
2018-09-01T23:48:31.269Z,3.63
2018-09-01T23:51:00.492Z,3.50
2018-09-01T23:53:29.787Z,3.57
2018-09-01T23:55:59.229Z,3.90
2018-09-01T23:58:28.590Z,4.47
